Time;durP1;ratioP1;P1;durP2;ratioP2;P2;SDS_P1;SDS_P2;PMS_P1;PMS_P2;Temp;Humidity;BMP_temperature;BMP_pressure;BME280_temperature;BME280_humidity;BME280_pressure;Samples;Min_cycle;Max_cycle;Signal;HPM_P1;HPM_P2
2023/03/23 00:01:36;;;;;;;0.80;0.80;;;13.10;99.90;;;;;;5071081;28;20227;-65
2023/03/23 00:04:04;;;;;;;0.70;0.70;;;13.10;99.90;;;;;;5071667;28;20207;-65
2023/03/23 00:06:32;;;;;;;0.70;0.70;;;13.10;99.90;;;;;;5071328;28;20646;-65
2023/03/23 00:09:01;;;;;;;0.90;0.90;;;13.10;99.90;;;;;;5070991;28;20203;-66
2023/03/23 00:11:30;;;;;;;0.80;0.80;;;13.10;99.90;;;;;;5070357;28;20226;-65
2023/03/23 00:14:00;;;;;;;0.80;0.80;;;13.30;99.90;;;;;;5070484;28;20218;-65
2023/03/23 00:16:30;;;;;;;0.60;0.60;;;13.10;99.90;;;;;;5071013;28;20207;-65
2023/03/23 00:18:58;;;;;;;0.68;0.68;;;13.10;99.90;;;;;;5070686;28;20731;-65
2023/03/23 00:21:33;;;;;;;0.80;0.80;;;13.10;99.90;;;;;;5066752;28;20311;-65
2023/03/23 00:24:03;;;;;;;0.70;0.70;;;13.10;99.90;;;;;;5068651;28;20207;-65
2023/03/23 00:26:33;;;;;;;0.60;0.60;;;13.20;99.90;;;;;;5071443;28;20191;-66
2023/03/23 00:29:01;;;;;;;0.80;0.80;;;13.10;99.90;;;;;;5071368;28;20238;-64
2023/03/23 00:31:31;;;;;;;0.80;0.80;;;13.10;99.90;;;;;;5071066;28;20231;-64
2023/03/23 00:33:58;;;;;;;0.53;0.53;;;13.20;99.90;;;;;;5071377;28;20280;-64
2023/03/23 00:36:25;;;;;;;0.70;0.70;;;13.20;99.90;;;;;;5072720;28;20213;-64
2023/03/23 00:38:52;;;;;;;0.60;0.60;;;13.20;99.90;;;;;;5072052;28;20223;-63
2023/03/23 00:41:21;;;;;;;0.70;0.70;;;13.20;99.90;;;;;;5071414;28;20231;-63
2023/03/23 00:43:48;;;;;;;0.60;0.60;;;13.40;99.90;;;;;;5070373;28;20698;-64
2023/03/23 00:46:15;;;;;;;0.70;0.70;;;13.30;99.90;;;;;;5070007;28;20613;-63
2023/03/23 00:48:44;;;;;;;0.60;0.60;;;13.30;99.90;;;;;;5069656;28;20265;-64
2023/03/23 00:51:11;;;;;;;0.60;0.60;;;13.40;99.90;;;;;;5069099;28;20230;-63
2023/03/23 00:53:39;;;;;;;0.70;0.70;;;13.30;99.90;;;;;;5069896;28;20575;-63
2023/03/23 00:56:07;;;;;;;0.80;0.80;;;13.30;99.90;;;;;;5070584;28;20348;-63
2023/03/23 00:58:35;;;;;;;0.70;0.70;;;13.20;99.90;;;;;;5072622;28;20225;-63
2023/03/23 01:01:04;;;;;;;0.80;0.80;;;13.20;99.90;;;;;;5075128;28;20333;-64
2023/03/23 01:03:31;;;;;;;0.60;0.60;;;13.20;99.90;;;;;;5075056;28;20209;-63
2023/03/23 01:05:58;;;;;;;0.70;0.70;;;13.20;99.90;;;;;;5072266;28;20210;-64
2023/03/23 01:08:26;;;;;;;0.50;0.50;;;13.20;99.90;;;;;;5070473;28;20222;-62
2023/03/23 01:11:04;;;;;;;0.70;0.70;;;13.10;99.90;;;;;;5068356;28;20617;-65
2023/03/23 01:13:31;;;;;;;0.70;0.70;;;13.10;99.90;;;;;;5072083;28;20606;-64
2023/03/23 01:15:59;;;;;;;0.70;0.70;;;13.10;99.90;;;;;;5071609;28;20209;-64
2023/03/23 01:18:26;;;;;;;0.70;0.70;;;13.10;99.90;;;;;;5070546;28;20218;-65
2023/03/23 01:20:52;;;;;;;0.77;0.77;;;13.10;99.90;;;;;;5069864;28;20294;-63
2023/03/23 01:23:19;;;;;;;0.70;0.70;;;13.20;99.90;;;;;;5070426;28;20601;-63
2023/03/23 01:25:46;;;;;;;0.55;0.55;;;13.20;99.90;;;;;;5072329;28;20276;-64
2023/03/23 01:28:13;;;;;;;0.70;0.70;;;13.10;99.90;;;;;;5070555;28;20209;-65
2023/03/23 01:30:40;;;;;;;0.70;0.70;;;13.20;99.90;;;;;;5069302;28;20293;-63
2023/03/23 01:33:08;;;;;;;0.68;0.68;;;13.10;99.90;;;;;;5070529;28;20290;-65
2023/03/23 01:35:38;;;;;;;0.70;0.70;;;13.10;99.90;;;;;;5069784;28;20636;-65
2023/03/23 01:38:05;;;;;;;0.73;0.70;;;13.10;99.90;;;;;;5070586;28;20221;-65
2023/03/23 01:40:32;;;;;;;0.70;0.70;;;13.10;99.90;;;;;;5069798;28;20211;-63
2023/03/23 01:42:59;;;;;;;0.70;0.70;;;13.20;99.90;;;;;;5070564;28;20223;-64
2023/03/23 01:45:34;;;;;;;0.77;0.77;;;13.10;99.90;;;;;;5070579;28;20213;-64
2023/03/23 01:48:14;;;;;;;1.10;0.55;;;13.10;99.90;;;;;;5070997;28;20222;-65
2023/03/23 01:50:48;;;;;;;0.50;0.50;;;13.00;99.90;;;;;;5069849;28;20290;-64
2023/03/23 01:53:15;;;;;;;0.70;0.70;;;13.00;99.90;;;;;;5070698;28;20274;-65
2023/03/23 01:55:48;;;;;;;0.70;0.70;;;13.00;99.90;;;;;;5070482;28;20222;-63
2023/03/23 01:58:17;;;;;;;0.70;0.70;;;13.00;99.90;;;;;;5070503;28;20448;-64
2023/03/23 02:00:45;;;;;;;0.70;0.70;;;13.10;99.90;;;;;;5069382;28;20229;-65
2023/03/23 02:03:15;;;;;;;0.80;0.80;;;13.10;99.90;;;;;;5069791;28;20863;-63
2023/03/23 02:05:43;;;;;;;0.60;0.60;;;13.10;99.90;;;;;;5070299;28;20288;-63
2023/03/23 02:08:13;;;;;;;0.60;0.60;;;13.10;99.90;;;;;;5070074;28;20647;-64
2023/03/23 02:10:40;;;;;;;0.80;0.80;;;13.20;99.90;;;;;;5069220;28;20199;-63
2023/03/23 02:13:09;;;;;;;0.70;0.70;;;13.10;99.90;;;;;;5069879;28;20298;-65
2023/03/23 02:15:46;;;;;;;0.67;0.67;;;13.10;99.90;;;;;;5069962;28;20211;-63
2023/03/23 02:18:32;;;;;;;0.60;0.60;;;13.10;99.90;;;;;;5070055;28;20207;-65
2023/03/23 02:21:38;;;;;;;0.60;0.60;;;13.20;99.90;;;;;;5069318;28;20207;-63
2023/03/23 02:24:31;;;;;;;0.50;0.50;;;13.20;99.90;;;;;;5069895;28;20202;-64
2023/03/23 02:27:02;;;;;;;0.57;0.57;;;13.20;99.90;;;;;;5069778;28;20203;-65
2023/03/23 02:29:59;;;;;;;0.60;0.60;;;13.30;99.90;;;;;;5068963;28;20211;-65
2023/03/23 02:32:53;;;;;;;0.73;0.73;;;13.30;99.90;;;;;;5070336;28;20265;-65
2023/03/23 02:35:26;;;;;;;0.67;0.67;;;13.30;99.90;;;;;;5076311;28;20210;-64
2023/03/23 02:37:59;;;;;;;0.70;0.70;;;13.30;99.90;;;;;;5064031;28;20248;-64
2023/03/23 02:40:29;;;;;;;0.67;0.67;;;13.30;99.90;;;;;;5068288;28;20231;-65
2023/03/23 02:42:58;;;;;;;0.50;0.50;;;13.30;99.90;;;;;;5069405;28;20779;-65
2023/03/23 02:45:28;;;;;;;0.68;0.68;;;13.40;99.90;;;;;;5069664;28;20225;-66
2023/03/23 02:47:56;;;;;;;0.60;0.60;;;13.40;99.90;;;;;;5067589;28;20828;-64
2023/03/23 02:50:28;;;;;;;0.63;0.63;;;13.40;99.90;;;;;;5072226;28;20291;-65
2023/03/23 02:52:58;;;;;;;0.70;0.70;;;13.40;99.90;;;;;;5073592;28;20227;-65
2023/03/23 02:55:25;;;;;;;0.30;0.30;;;13.40;99.90;;;;;;5073251;28;20570;-65
2023/03/23 02:57:53;;;;;;;0.70;0.70;;;13.40;99.90;;;;;;5075638;28;20210;-65
2023/03/23 03:00:21;;;;;;;0.70;0.70;;;13.50;99.90;;;;;;5072240;28;20223;-63
2023/03/23 03:02:52;;;;;;;0.50;0.50;;;13.50;99.90;;;;;;5073146;28;20568;-64
2023/03/23 03:05:28;;;;;;;0.70;0.70;;;13.50;99.90;;;;;;5074187;28;20229;-64
2023/03/23 03:08:09;;;;;;;0.80;0.80;;;13.50;99.90;;;;;;5073581;28;20207;-64
2023/03/23 03:10:44;;;;;;;0.77;0.77;;;13.60;99.90;;;;;;5072274;28;20245;-64
2023/03/23 03:13:18;;;;;;;0.60;0.60;;;13.70;99.90;;;;;;5073065;28;20209;-65
2023/03/23 03:15:51;;;;;;;0.60;0.60;;;13.80;99.90;;;;;;5073225;28;20208;-65
2023/03/23 03:18:23;;;;;;;0.63;0.63;;;13.90;99.90;;;;;;5072931;28;20247;-65
2023/03/23 03:20:55;;;;;;;0.70;0.70;;;13.90;99.90;;;;;;5071960;28;20213;-64
2023/03/23 03:23:24;;;;;;;0.60;0.60;;;14.00;99.90;;;;;;5072784;28;20202;-65
2023/03/23 03:25:54;;;;;;;0.60;0.60;;;14.20;99.90;;;;;;5072840;28;20211;-64
2023/03/23 03:28:22;;;;;;;0.70;0.70;;;14.20;99.90;;;;;;5072920;28;20256;-63
2023/03/23 03:30:53;;;;;;;0.50;0.50;;;14.20;99.90;;;;;;5071850;28;20233;-65
2023/03/23 03:33:25;;;;;;;1.50;0.63;;;14.30;99.90;;;;;;5073338;28;20203;-65
2023/03/23 03:35:55;;;;;;;0.80;0.70;;;14.20;99.90;;;;;;5073242;28;20252;-64
2023/03/23 03:38:23;;;;;;;0.70;0.70;;;14.20;99.90;;;;;;5073586;28;20252;-64
2023/03/23 03:40:50;;;;;;;1.23;0.80;;;14.20;99.90;;;;;;5072228;28;20227;-63
2023/03/23 03:43:17;;;;;;;0.45;0.45;;;14.20;99.90;;;;;;5072934;28;20211;-63
2023/03/23 03:45:44;;;;;;;0.80;0.80;;;14.20;99.90;;;;;;5072834;28;20299;-64
2023/03/23 03:48:11;;;;;;;0.50;0.50;;;14.30;99.90;;;;;;5072214;28;20215;-65
2023/03/23 03:50:38;;;;;;;0.63;0.63;;;14.30;99.90;;;;;;5071527;28;20203;-63
2023/03/23 03:53:07;;;;;;;0.50;0.50;;;14.30;99.90;;;;;;5072518;28;20733;-64
2023/03/23 03:55:35;;;;;;;0.50;0.50;;;14.30;99.90;;;;;;5072782;28;20302;-64
2023/03/23 03:58:04;;;;;;;0.60;0.60;;;14.30;99.90;;;;;;5072343;28;20209;-63
2023/03/23 04:00:31;;;;;;;0.73;0.73;;;14.20;99.90;;;;;;5071477;28;20693;-65
2023/03/23 04:02:59;;;;;;;0.60;0.60;;;14.20;99.90;;;;;;5072034;28;20223;-63
2023/03/23 04:05:28;;;;;;;0.70;0.70;;;14.20;99.90;;;;;;5072274;28;20265;-63
2023/03/23 04:08:01;;;;;;;0.60;0.60;;;14.20;99.90;;;;;;5071976;28;20273;-63
2023/03/23 04:10:30;;;;;;;0.70;0.70;;;14.00;99.90;;;;;;5071193;28;20222;-62
2023/03/23 04:12:58;;;;;;;0.70;0.70;;;14.00;99.90;;;;;;5072973;28;20223;-64
2023/03/23 04:15:25;;;;;;;0.80;0.80;;;14.00;99.90;;;;;;5073272;28;20207;-64
2023/03/23 04:17:52;;;;;;;0.60;0.60;;;14.00;99.90;;;;;;5072057;28;20231;-64
2023/03/23 04:20:19;;;;;;;0.70;0.70;;;14.00;99.90;;;;;;5074553;28;20259;-63
2023/03/23 04:22:48;;;;;;;0.70;0.70;;;14.00;99.90;;;;;;5078620;28;20238;-65
2023/03/23 04:25:17;;;;;;;0.50;0.50;;;14.00;99.90;;;;;;5071839;28;20215;-64
2023/03/23 04:27:45;;;;;;;0.60;0.60;;;14.00;99.90;;;;;;5071568;28;20299;-65
2023/03/23 04:30:14;;;;;;;0.50;0.50;;;14.10;99.90;;;;;;5070965;28;20202;-65
2023/03/23 04:32:41;;;;;;;0.80;0.80;;;14.00;99.90;;;;;;5071565;28;20733;-64
2023/03/23 04:35:10;;;;;;;1.00;1.00;;;14.10;99.90;;;;;;5071808;28;20199;-65
2023/03/23 04:37:38;;;;;;;0.90;0.90;;;14.10;99.90;;;;;;5071845;28;20763;-65
2023/03/23 04:40:11;;;;;;;0.90;0.90;;;14.00;99.90;;;;;;5070833;28;20223;-63
2023/03/23 04:42:38;;;;;;;0.70;0.70;;;14.00;99.90;;;;;;5071395;28;20765;-64
2023/03/23 04:45:08;;;;;;;0.60;0.60;;;14.00;99.90;;;;;;5071620;28;20203;-65
2023/03/23 04:47:39;;;;;;;0.70;0.70;;;14.00;99.90;;;;;;5073079;28;20210;-65
2023/03/23 04:50:09;;;;;;;0.50;0.50;;;14.00;99.90;;;;;;5076714;28;20401;-64
2023/03/23 04:52:37;;;;;;;0.70;0.70;;;14.00;99.90;;;;;;5086323;28;20291;-64
2023/03/23 04:55:05;;;;;;;0.80;0.80;;;14.10;99.90;;;;;;5085829;28;20238;-64
2023/03/23 04:57:32;;;;;;;0.93;0.80;;;13.90;99.90;;;;;;5088179;28;20224;-64
2023/03/23 05:00:00;;;;;;;0.60;0.60;;;13.90;99.90;;;;;;5079789;28;20238;-64
2023/03/23 05:02:30;;;;;;;0.53;0.53;;;13.90;99.90;;;;;;5076179;28;20652;-63
2023/03/23 05:04:57;;;;;;;0.60;0.60;;;13.90;99.90;;;;;;5071194;28;20204;-64
2023/03/23 05:07:23;;;;;;;0.67;0.67;;;13.90;99.90;;;;;;5070698;28;20673;-63
2023/03/23 05:09:51;;;;;;;0.70;0.70;;;13.90;99.90;;;;;;5069405;28;20203;-63
2023/03/23 05:12:18;;;;;;;0.63;0.63;;;13.90;99.90;;;;;;5071149;28;20313;-64
2023/03/23 05:14:45;;;;;;;0.60;0.60;;;13.90;99.90;;;;;;5071288;28;20203;-65
2023/03/23 05:17:12;;;;;;;0.50;0.50;;;14.00;99.90;;;;;;5071355;28;20267;-63
2023/03/23 05:19:43;;;;;;;0.63;0.63;;;13.90;99.90;;;;;;5069951;28;20223;-63
2023/03/23 05:22:12;;;;;;;0.70;0.70;;;13.80;99.90;;;;;;5070414;28;20231;-64
2023/03/23 05:24:39;;;;;;;0.60;0.60;;;13.80;99.90;;;;;;5071002;28;20207;-65
2023/03/23 05:27:07;;;;;;;0.77;0.77;;;13.80;99.90;;;;;;5071155;28;20209;-62
2023/03/23 05:29:35;;;;;;;0.82;0.82;;;13.80;99.90;;;;;;5069599;28;20235;-63
2023/03/23 05:32:03;;;;;;;0.80;0.80;;;13.80;99.90;;;;;;5069553;28;20227;-63
2023/03/23 05:34:32;;;;;;;0.57;0.57;;;13.80;99.90;;;;;;5069857;28;20243;-63
2023/03/23 05:37:01;;;;;;;0.80;0.80;;;13.80;99.90;;;;;;5072194;28;20239;-65
2023/03/23 05:39:28;;;;;;;0.53;0.53;;;13.80;99.90;;;;;;5067108;28;21101;-62
2023/03/23 05:41:56;;;;;;;0.60;0.60;;;13.80;99.90;;;;;;5068919;28;20223;-62
2023/03/23 05:44:23;;;;;;;0.63;0.63;;;13.80;99.90;;;;;;5070199;28;20201;-62
2023/03/23 05:46:50;;;;;;;0.60;0.60;;;13.80;99.90;;;;;;5065635;28;20257;-63
2023/03/23 05:49:17;;;;;;;0.83;0.83;;;13.80;99.90;;;;;;5066932;28;20290;-62
2023/03/23 05:51:45;;;;;;;0.60;0.60;;;13.80;99.90;;;;;;5056446;28;20223;-63
2023/03/23 05:54:14;;;;;;;0.83;0.83;;;13.90;99.90;;;;;;5074102;28;20237;-62
2023/03/23 05:56:41;;;;;;;0.70;0.70;;;13.90;99.90;;;;;;5071205;28;20272;-63
2023/03/23 05:59:09;;;;;;;0.73;0.73;;;13.90;99.90;;;;;;5069922;28;20215;-64
2023/03/23 06:01:36;;;;;;;0.90;0.90;;;13.90;99.90;;;;;;5068933;28;20227;-62
2023/03/23 06:04:03;;;;;;;0.70;0.70;;;14.00;99.90;;;;;;5051957;28;20753;-64
2023/03/23 06:06:32;;;;;;;0.70;0.70;;;14.00;99.90;;;;;;5057879;28;20195;-64
2023/03/23 06:08:59;;;;;;;0.90;0.90;;;14.00;99.90;;;;;;5066312;28;20219;-62
2023/03/23 06:11:27;;;;;;;0.73;0.73;;;14.00;99.90;;;;;;5071354;28;20672;-65
2023/03/23 06:13:54;;;;;;;0.70;0.70;;;14.00;99.90;;;;;;5071518;28;20617;-63
2023/03/23 06:16:21;;;;;;;0.77;0.77;;;13.90;99.90;;;;;;5052027;28;20207;-63
2023/03/23 06:18:49;;;;;;;1.07;0.90;;;13.90;99.90;;;;;;5050258;28;20242;-63
2023/03/23 06:21:18;;;;;;;0.70;0.70;;;13.80;99.90;;;;;;5049957;28;20617;-64
2023/03/23 06:23:45;;;;;;;0.80;0.80;;;13.70;99.90;;;;;;5068180;28;20199;-63
2023/03/23 06:26:16;;;;;;;1.02;1.02;;;13.60;99.90;;;;;;5073859;28;20199;-64
2023/03/23 06:28:44;;;;;;;0.80;0.80;;;13.50;99.90;;;;;;5073580;28;20191;-62
2023/03/23 06:31:13;;;;;;;0.77;0.77;;;13.50;99.90;;;;;;5069614;28;20218;-62
2023/03/23 06:33:40;;;;;;;0.77;0.77;;;13.50;99.90;;;;;;5056744;28;20204;-63
2023/03/23 06:36:09;;;;;;;0.83;0.83;;;13.50;99.90;;;;;;5072208;28;20214;-64
2023/03/23 06:38:36;;;;;;;0.90;0.90;;;13.50;99.90;;;;;;5073644;28;20206;-61
2023/03/23 06:41:02;;;;;;;0.80;0.80;;;13.50;99.90;;;;;;5071854;28;20273;-63
2023/03/23 06:43:29;;;;;;;0.80;0.80;;;13.50;99.90;;;;;;5072928;28;20569;-64
2023/03/23 06:46:00;;;;;;;0.60;0.60;;;13.60;99.90;;;;;;5071175;28;20207;-62
2023/03/23 06:48:27;;;;;;;0.90;0.90;;;13.60;99.90;;;;;;5074084;28;20218;-62
2023/03/23 06:50:55;;;;;;;1.02;0.93;;;13.60;99.90;;;;;;5067364;28;20207;-62
2023/03/23 06:53:21;;;;;;;0.80;0.80;;;13.60;99.90;;;;;;5060523;28;20200;-64
2023/03/23 06:55:48;;;;;;;0.93;0.93;;;13.60;99.90;;;;;;5073574;28;20217;-63
2023/03/23 06:58:15;;;;;;;0.63;0.63;;;13.60;99.90;;;;;;5074986;28;20211;-63
2023/03/23 07:00:44;;;;;;;0.70;0.70;;;13.60;99.90;;;;;;5074198;28;20223;-63
2023/03/23 07:03:12;;;;;;;0.90;0.90;;;13.60;99.90;;;;;;5074381;28;20222;-63
2023/03/23 07:05:39;;;;;;;0.60;0.60;;;13.60;99.90;;;;;;5074088;28;20238;-63
2023/03/23 07:08:06;;;;;;;0.67;0.67;;;13.70;99.90;;;;;;5074488;28;20203;-63
2023/03/23 07:10:33;;;;;;;0.80;0.80;;;13.80;99.90;;;;;;5073681;28;20221;-62
2023/03/23 07:13:00;;;;;;;0.70;0.70;;;13.80;99.90;;;;;;5074833;28;20329;-64
2023/03/23 07:15:27;;;;;;;0.90;0.90;;;13.80;99.90;;;;;;5074686;28;20635;-63
2023/03/23 07:17:55;;;;;;;0.90;0.90;;;13.80;99.90;;;;;;5074954;28;20246;-64
2023/03/23 07:20:23;;;;;;;0.83;0.80;;;14.00;99.90;;;;;;5073916;28;20233;-63
2023/03/23 07:22:50;;;;;;;1.43;1.33;;;13.80;99.90;;;;;;5074086;28;20227;-64
2023/03/23 07:25:18;;;;;;;0.97;0.97;;;13.80;99.90;;;;;;5074084;28;20199;-62
2023/03/23 07:27:46;;;;;;;1.00;1.00;;;13.80;99.90;;;;;;5073946;28;20290;-62
2023/03/23 07:30:14;;;;;;;1.07;1.07;;;13.80;99.90;;;;;;5073719;28;20210;-64
2023/03/23 07:32:41;;;;;;;0.90;0.90;;;13.80;99.90;;;;;;5073665;28;20228;-63
2023/03/23 07:35:08;;;;;;;1.07;1.07;;;13.90;99.90;;;;;;5079868;28;20233;-64
2023/03/23 07:37:37;;;;;;;1.10;1.10;;;13.90;99.90;;;;;;5074663;28;20213;-63
2023/03/23 07:40:14;;;;;;;1.00;1.00;;;13.90;99.90;;;;;;5062002;28;20617;-64
2023/03/23 07:42:41;;;;;;;1.00;1.00;;;13.90;99.90;;;;;;5073107;28;20227;-64
2023/03/23 07:45:09;;;;;;;0.90;0.90;;;13.90;99.90;;;;;;5073721;28;20427;-63
2023/03/23 07:47:36;;;;;;;0.90;0.90;;;14.00;99.90;;;;;;5073120;28;20211;-63
2023/03/23 07:50:03;;;;;;;0.80;0.80;;;13.90;99.90;;;;;;5072224;28;20206;-63
2023/03/23 07:52:31;;;;;;;1.30;1.20;;;13.90;99.90;;;;;;5073318;28;20265;-64
2023/03/23 07:55:01;;;;;;;1.00;1.00;;;13.90;99.90;;;;;;5075423;28;20271;-64
2023/03/23 07:57:28;;;;;;;1.10;1.10;;;13.90;99.90;;;;;;5075188;28;20239;-64
2023/03/23 07:59:55;;;;;;;1.00;1.00;;;13.90;99.90;;;;;;5072336;28;20650;-63
2023/03/23 08:02:22;;;;;;;1.00;1.00;;;14.00;99.90;;;;;;5072235;28;20227;-64
2023/03/23 08:04:49;;;;;;;1.00;1.00;;;14.00;99.90;;;;;;5073114;28;20230;-63
2023/03/23 08:07:17;;;;;;;0.90;0.90;;;14.00;99.90;;;;;;5073254;28;20199;-63
2023/03/23 08:09:44;;;;;;;1.37;1.10;;;14.10;99.90;;;;;;5072796;28;20203;-63
2023/03/23 08:12:12;;;;;;;0.97;0.97;;;14.10;99.90;;;;;;5073787;28;20223;-63
2023/03/23 08:14:39;;;;;;;0.90;0.90;;;14.20;99.90;;;;;;5072512;28;20207;-62
2023/03/23 08:17:06;;;;;;;1.00;1.00;;;14.20;99.90;;;;;;5073231;28;20277;-62
2023/03/23 08:19:36;;;;;;;1.20;1.20;;;14.20;99.90;;;;;;5072863;28;20203;-63
2023/03/23 08:22:03;;;;;;;1.10;1.10;;;14.20;99.90;;;;;;5072914;28;20227;-63
2023/03/23 08:24:30;;;;;;;1.10;1.10;;;14.20;99.90;;;;;;5072738;28;20203;-64
2023/03/23 08:26:57;;;;;;;1.20;1.10;;;14.20;99.90;;;;;;5072854;28;20290;-63
2023/03/23 08:29:25;;;;;;;1.00;1.00;;;14.30;99.90;;;;;;5071621;28;20210;-65
2023/03/23 08:31:53;;;;;;;0.87;0.87;;;14.40;99.90;;;;;;5072564;28;20219;-64
2023/03/23 08:34:20;;;;;;;1.40;1.00;;;14.40;99.90;;;;;;5072487;28;20226;-64
2023/03/23 08:36:47;;;;;;;2.73;1.10;;;14.40;99.90;;;;;;5072330;28;20227;-62
2023/03/23 08:39:16;;;;;;;1.07;1.07;;;14.50;99.90;;;;;;5071612;28;20250;-63
2023/03/23 08:41:43;;;;;;;0.80;0.80;;;14.50;99.90;;;;;;5071267;28;20227;-62
2023/03/23 08:44:10;;;;;;;1.03;1.03;;;14.50;99.90;;;;;;5072500;28;20233;-63
2023/03/23 08:46:38;;;;;;;1.00;1.00;;;14.60;99.90;;;;;;5072518;28;20209;-63
2023/03/23 08:49:05;;;;;;;1.00;1.00;;;14.60;99.90;;;;;;5071606;28;20682;-63
2023/03/23 08:51:32;;;;;;;0.90;0.90;;;14.70;99.90;;;;;;5072028;28;20227;-62
2023/03/23 08:53:59;;;;;;;1.15;1.10;;;14.60;99.90;;;;;;5071127;28;20217;-64
2023/03/23 08:56:27;;;;;;;1.20;1.10;;;14.70;99.90;;;;;;5051791;28;20208;-63
2023/03/23 08:58:54;;;;;;;0.90;0.90;;;14.70;99.90;;;;;;5052236;28;20208;-64
2023/03/23 09:01:21;;;;;;;1.20;1.20;;;14.70;99.90;;;;;;5051027;28;20274;-64
2023/03/23 09:03:50;;;;;;;1.07;1.00;;;14.70;99.90;;;;;;5051919;28;20200;-64
2023/03/23 09:06:17;;;;;;;0.90;0.90;;;14.70;99.90;;;;;;5050098;28;20304;-63
2023/03/23 09:08:44;;;;;;;1.30;1.20;;;14.80;99.90;;;;;;5051343;28;20214;-63
2023/03/23 09:11:11;;;;;;;2.30;1.17;;;14.80;99.90;;;;;;5050768;28;20323;-63
2023/03/23 09:13:40;;;;;;;1.20;1.20;;;14.90;99.90;;;;;;5054488;28;20211;-62
2023/03/23 09:16:08;;;;;;;1.48;1.40;;;14.90;99.90;;;;;;5059985;28;20212;-63
2023/03/23 09:18:35;;;;;;;1.73;1.33;;;14.90;99.90;;;;;;5052391;28;20204;-63
2023/03/23 09:21:05;;;;;;;1.25;1.17;;;14.80;99.90;;;;;;5050794;28;20223;-64
2023/03/23 09:23:33;;;;;;;1.05;1.05;;;14.80;99.90;;;;;;5051873;28;20206;-63
2023/03/23 09:26:01;;;;;;;1.20;1.20;;;14.70;99.90;;;;;;5052096;28;20226;-64
2023/03/23 09:28:30;;;;;;;1.10;1.10;;;14.70;99.90;;;;;;5052743;28;20200;-63
2023/03/23 09:30:58;;;;;;;1.10;1.00;;;14.60;99.90;;;;;;5051090;28;20671;-62
2023/03/23 09:33:26;;;;;;;1.00;1.00;;;14.60;99.90;;;;;;5064081;28;20199;-64
2023/03/23 09:35:54;;;;;;;0.90;0.90;;;14.60;99.90;;;;;;5071284;28;20203;-63
2023/03/23 09:38:22;;;;;;;0.70;0.70;;;14.70;99.90;;;;;;5071457;28;20210;-63
2023/03/23 09:40:50;;;;;;;0.93;0.93;;;14.70;99.90;;;;;;5072030;28;20256;-63
2023/03/23 09:43:29;;;;;;;1.20;1.00;;;14.80;99.90;;;;;;5074416;28;20211;-64
2023/03/23 09:46:05;;;;;;;1.10;1.10;;;14.80;99.90;;;;;;5071404;28;20203;-63
2023/03/23 09:48:44;;;;;;;0.95;0.90;;;14.90;99.90;;;;;;5071496;28;20245;-63
2023/03/23 09:51:23;;;;;;;1.10;1.10;;;14.90;99.90;;;;;;5070430;28;20305;-64
2023/03/23 09:53:56;;;;;;;0.95;0.95;;;14.90;99.90;;;;;;5070540;28;20605;-63
2023/03/23 09:56:32;;;;;;;1.20;1.10;;;15.00;99.90;;;;;;5070077;28;20570;-63
2023/03/23 09:59:03;;;;;;;1.00;1.00;;;15.00;99.90;;;;;;5068227;28;20206;-63
2023/03/23 10:01:36;;;;;;;0.95;0.95;;;15.10;99.90;;;;;;5065411;28;20234;-64
2023/03/23 10:04:10;;;;;;;1.10;1.00;;;15.10;99.90;;;;;;5069549;28;20562;-63
2023/03/23 10:06:37;;;;;;;0.90;0.90;;;15.30;99.90;;;;;;5052945;28;20302;-64
2023/03/23 10:09:07;;;;;;;0.80;0.80;;;15.40;99.90;;;;;;5048338;28;20302;-64
2023/03/23 10:11:44;;;;;;;1.08;1.08;;;15.40;99.90;;;;;;5048198;28;20323;-62
2023/03/23 10:14:29;;;;;;;0.87;0.87;;;15.40;99.90;;;;;;5049193;28;20253;-63
2023/03/23 10:17:04;;;;;;;0.83;0.83;;;15.50;99.90;;;;;;5048203;28;20231;-63
2023/03/23 10:19:36;;;;;;;0.90;0.90;;;15.50;99.90;;;;;;5048296;28;20199;-63
2023/03/23 10:22:06;;;;;;;0.83;0.83;;;15.50;99.90;;;;;;5048812;28;20697;-62
2023/03/23 10:24:38;;;;;;;0.90;0.90;;;15.50;99.90;;;;;;5048211;28;20219;-61
2023/03/23 10:27:21;;;;;;;0.90;0.90;;;15.60;99.90;;;;;;5049018;28;20736;-64
2023/03/23 10:29:53;;;;;;;1.10;1.07;;;15.60;99.90;;;;;;5048275;28;20862;-64
2023/03/23 10:32:23;;;;;;;1.00;1.00;;;15.70;99.90;;;;;;5048625;28;20716;-64
2023/03/23 10:34:55;;;;;;;0.90;0.90;;;15.70;99.90;;;;;;5048765;28;20216;-63
2023/03/23 10:37:25;;;;;;;0.97;0.97;;;15.70;99.90;;;;;;5048239;28;20210;-62
2023/03/23 10:39:58;;;;;;;0.80;0.80;;;15.80;99.90;;;;;;5047891;28;20298;-63
2023/03/23 10:42:27;;;;;;;0.93;0.93;;;15.90;99.90;;;;;;5047073;28;20702;-64
2023/03/23 10:44:56;;;;;;;0.77;0.77;;;16.00;99.90;;;;;;5047999;28;20211;-64
2023/03/23 10:47:24;;;;;;;0.90;0.90;;;16.00;99.90;;;;;;5048120;28;20747;-62
2023/03/23 10:49:54;;;;;;;0.80;0.80;;;16.20;99.90;;;;;;5047466;28;20203;-62
2023/03/23 10:52:31;;;;;;;0.90;0.90;;;16.40;99.90;;;;;;5048099;28;20220;-63
2023/03/23 10:55:08;;;;;;;0.93;0.93;;;16.50;99.90;;;;;;5055765;28;20224;-63
2023/03/23 10:57:37;;;;;;;0.80;0.80;;;16.50;99.90;;;;;;5053340;28;20247;-62
2023/03/23 11:00:08;;;;;;;0.90;0.90;;;16.60;99.90;;;;;;5048571;28;20208;-62
2023/03/23 11:02:40;;;;;;;0.90;0.90;;;16.70;99.90;;;;;;5048968;28;20251;-63
2023/03/23 11:05:16;;;;;;;0.80;0.80;;;16.80;99.90;;;;;;5048551;28;20674;-63
2023/03/23 11:07:50;;;;;;;0.90;0.90;;;16.80;99.90;;;;;;5048744;28;20217;-63
2023/03/23 11:10:25;;;;;;;0.80;0.80;;;16.70;99.90;;;;;;5051570;28;20206;-64
2023/03/23 11:12:53;;;;;;;1.03;1.00;;;16.70;99.90;;;;;;5050616;28;20357;-63
2023/03/23 11:15:30;;;;;;;0.97;0.97;;;16.70;99.90;;;;;;5051188;28;20644;-62
2023/03/23 11:17:59;;;;;;;1.23;1.00;;;16.70;99.90;;;;;;5051893;28;20204;-64
2023/03/23 11:20:28;;;;;;;1.00;1.00;;;16.60;99.90;;;;;;5050726;28;20208;-63
2023/03/23 11:22:55;;;;;;;0.70;0.70;;;16.50;99.90;;;;;;5051289;28;21036;-64
2023/03/23 11:25:24;;;;;;;1.33;1.30;;;16.50;99.90;;;;;;5051893;28;20253;-63
2023/03/23 11:27:52;;;;;;;1.00;1.00;;;16.50;99.90;;;;;;5051773;28;20326;-63
2023/03/23 11:30:27;;;;;;;1.00;0.97;;;16.40;99.90;;;;;;5052192;28;20552;-64
2023/03/23 11:32:55;;;;;;;1.20;1.10;;;16.50;99.90;;;;;;5056391;28;20228;-63
2023/03/23 11:35:24;;;;;;;1.03;1.00;;;16.40;99.90;;;;;;5051981;28;20218;-62
2023/03/23 11:37:54;;;;;;;0.93;0.93;;;16.30;99.90;;;;;;5052365;28;20208;-63
2023/03/23 11:40:25;;;;;;;1.00;1.00;;;16.30;99.90;;;;;;5050922;28;20208;-62
2023/03/23 11:42:59;;;;;;;1.90;1.10;;;16.30;99.90;;;;;;5053177;28;20268;-62
2023/03/23 11:45:34;;;;;;;1.03;1.00;;;16.30;99.90;;;;;;5051359;28;20265;-63
2023/03/23 11:48:13;;;;;;;0.88;0.88;;;16.40;99.90;;;;;;5051327;28;20219;-64
2023/03/23 11:50:50;;;;;;;0.83;0.83;;;16.40;99.90;;;;;;5065273;28;20357;-63
2023/03/23 11:53:26;;;;;;;1.20;1.10;;;16.50;99.90;;;;;;5071995;28;20197;-63
2023/03/23 11:56:02;;;;;;;1.00;1.00;;;16.60;99.90;;;;;;5073059;28;20256;-63
2023/03/23 11:58:32;;;;;;;1.00;1.00;;;16.70;99.90;;;;;;5063707;28;20298;-63
2023/03/23 12:01:05;;;;;;;1.08;1.08;;;16.80;99.90;;;;;;5071922;28;20348;-63
2023/03/23 12:03:48;;;;;;;1.03;0.90;;;16.90;99.90;;;;;;5074147;28;20203;-63
2023/03/23 12:06:26;;;;;;;1.00;1.00;;;17.00;99.90;;;;;;5072434;28;20213;-65
2023/03/23 12:09:06;;;;;;;0.90;0.90;;;17.10;99.90;;;;;;5071773;28;20195;-63
2023/03/23 12:11:57;;;;;;;1.20;1.10;;;17.20;99.90;;;;;;5071609;28;20219;-62
2023/03/23 12:14:33;;;;;;;0.85;0.85;;;17.30;99.90;;;;;;5071536;28;20203;-64
2023/03/23 12:17:11;;;;;;;0.93;0.88;;;17.30;99.90;;;;;;5071513;28;20219;-63
2023/03/23 12:19:45;;;;;;;1.13;1.13;;;17.30;99.90;;;;;;5071124;28;20227;-64
2023/03/23 12:22:29;;;;;;;1.03;1.03;;;17.20;99.90;;;;;;5072005;28;20237;-63
2023/03/23 12:25:09;;;;;;;0.95;0.95;;;17.30;99.90;;;;;;5071586;28;20207;-64
2023/03/23 12:27:44;;;;;;;0.80;0.80;;;17.30;99.90;;;;;;5073135;28;20207;-63
2023/03/23 12:30:22;;;;;;;0.93;0.93;;;17.30;99.90;;;;;;5072872;28;20199;-64
2023/03/23 12:33:05;;;;;;;0.80;0.80;;;17.40;99.90;;;;;;5063088;28;20310;-63
2023/03/23 12:35:44;;;;;;;1.00;0.87;;;17.50;99.90;;;;;;5062955;28;20593;-63
2023/03/23 12:38:31;;;;;;;0.80;0.80;;;17.60;99.90;;;;;;5059256;28;20651;-64
2023/03/23 12:41:15;;;;;;;0.77;0.77;;;17.70;99.90;;;;;;5060667;28;20576;-62
2023/03/23 12:43:52;;;;;;;1.00;1.00;;;17.80;99.90;;;;;;5061178;28;20209;-64
2023/03/23 12:46:39;;;;;;;0.93;0.93;;;17.70;99.90;;;;;;5059613;28;20655;-64
2023/03/23 12:49:11;;;;;;;0.80;0.80;;;17.80;99.90;;;;;;5049046;28;20212;-65
2023/03/23 12:51:44;;;;;;;0.85;0.85;;;17.80;99.90;;;;;;5049824;28;20573;-64
2023/03/23 12:54:20;;;;;;;0.80;0.80;;;17.80;99.90;;;;;;5058410;28;20640;-64
2023/03/23 12:56:52;;;;;;;0.70;0.70;;;17.90;99.90;;;;;;5059488;28;20190;-62
2023/03/23 12:59:26;;;;;;;1.00;1.00;;;17.80;99.90;;;;;;5058773;28;20199;-63
2023/03/23 13:01:58;;;;;;;0.85;0.85;;;17.90;99.90;;;;;;5058648;28;20614;-63
2023/03/23 13:04:33;;;;;;;0.80;0.80;;;18.00;99.90;;;;;;5064997;28;20199;-63